createdAt,value
2023-11-25T00:07:34.343Z,45.53
2023-11-25T00:08:51.556Z,44.75
2023-11-25T00:10:09.027Z,46.67
2023-11-25T00:12:44.596Z,53.33
2023-11-25T00:15:14.754Z,50.85
2023-11-25T00:17:42.587Z,48.13
2023-11-25T00:20:17.229Z,50.75
2023-11-25T00:23:10.048Z,52.42
2023-11-25T00:25:38.426Z,44.88
2023-11-25T00:28:11.786Z,45.00
2023-11-25T00:30:40.011Z,44.25
2023-11-25T00:33:07.926Z,45.75
2023-11-25T00:35:35.707Z,47.83
2023-11-25T00:38:05.068Z,39.70
2023-11-25T00:40:32.767Z,44.60
2023-11-25T00:43:00.288Z,44.22
2023-11-25T00:45:28.136Z,41.90
2023-11-25T00:47:58.174Z,45.17
2023-11-25T00:50:26.582Z,50.72
2023-11-25T00:52:55.047Z,43.90
2023-11-25T00:55:44.267Z,48.70
2023-11-25T00:58:13.597Z,44.03
2023-11-25T01:00:41.127Z,47.20
2023-11-25T01:03:09.137Z,39.97
2023-11-25T01:05:36.947Z,42.83
2023-11-25T01:08:04.969Z,44.47
2023-11-25T01:10:32.496Z,46.35
2023-11-25T01:13:00.041Z,46.08
2023-11-25T01:15:27.566Z,45.10
2023-11-25T01:17:57.648Z,42.45
2023-11-25T01:20:25.400Z,42.40
2023-11-25T01:22:53.165Z,38.90
2023-11-25T01:25:20.809Z,43.30
2023-11-25T01:27:49.020Z,39.55
2023-11-25T01:30:16.533Z,40.08
2023-11-25T01:32:44.116Z,43.88
2023-11-25T01:35:12.994Z,45.97
2023-11-25T01:37:41.762Z,40.28
2023-11-25T01:40:13.411Z,38.05
2023-11-25T01:42:44.335Z,43.50
2023-11-25T01:45:13.980Z,36.95
2023-11-25T01:47:42.730Z,42.75
2023-11-25T01:50:11.837Z,33.40
2023-11-25T01:52:40.947Z,37.83
2023-11-25T01:55:29.416Z,37.92
2023-11-25T01:57:57.083Z,42.15
2023-11-25T02:00:26.737Z,45.35
2023-11-25T02:03:00.259Z,40.03
2023-11-25T02:05:28.840Z,34.67
2023-11-25T02:07:57.023Z,41.88
2023-11-25T02:10:26.308Z,39.60
2023-11-25T02:12:53.911Z,37.72
2023-11-25T02:15:22.052Z,43.97
2023-11-25T02:17:58.845Z,36.60
2023-11-25T02:20:34.395Z,41.95
2023-11-25T02:23:02.969Z,38.60
2023-11-25T02:25:30.707Z,38.92
2023-11-25T02:27:58.297Z,46.28
2023-11-25T02:30:25.937Z,41.00
2023-11-25T02:32:54.751Z,36.72
2023-11-25T02:35:22.469Z,38.03
2023-11-25T02:37:51.297Z,37.90
2023-11-25T02:40:19.105Z,45.42
2023-11-25T02:42:50.325Z,37.35
2023-11-25T02:45:24.126Z,33.65
2023-11-25T02:47:52.382Z,38.67
2023-11-25T02:50:20.092Z,36.80
2023-11-25T02:52:48.063Z,21.38
2023-11-25T02:55:15.818Z,20.38
2023-11-25T02:57:44.808Z,35.33
2023-11-25T03:00:17.852Z,27.23
2023-11-25T03:05:14.656Z,32.50
2023-11-25T03:07:46.069Z,31.70
2023-11-25T03:10:18.067Z,32.35
2023-11-25T03:12:51.346Z,35.17
2023-11-25T03:15:21.630Z,41.78
2023-11-25T03:17:49.288Z,41.63
2023-11-25T03:20:16.906Z,41.22
2023-11-25T03:22:45.220Z,42.22
2023-11-25T03:25:15.524Z,40.72
2023-11-25T03:27:43.456Z,40.25
2023-11-25T03:30:12.950Z,41.05
2023-11-25T03:32:43.536Z,38.35
2023-11-25T03:35:11.170Z,35.53
2023-11-25T03:37:39.385Z,40.38
2023-11-25T03:40:12.295Z,36.53
2023-11-25T03:42:39.847Z,40.30
2023-11-25T03:45:08.524Z,43.00
2023-11-25T03:47:36.087Z,55.13
2023-11-25T03:50:05.264Z,43.22
2023-11-25T03:52:33.114Z,43.88
2023-11-25T03:55:03.676Z,41.45
2023-11-25T03:57:35.391Z,31.02
2023-11-25T04:00:07.806Z,46.78
2023-11-25T04:02:39.279Z,43.67
2023-11-25T04:05:08.038Z,41.38
2023-11-25T04:07:35.801Z,39.30
2023-11-25T04:10:13.726Z,41.42
2023-11-25T04:12:42.378Z,38.03
2023-11-25T04:15:11.483Z,34.67
2023-11-25T04:17:40.806Z,19.83
2023-11-25T04:20:14.761Z,36.13
2023-11-25T04:22:47.074Z,33.92
2023-11-25T04:25:16.406Z,39.03
2023-11-25T04:27:44.759Z,40.97
2023-11-25T04:30:12.885Z,42.20
2023-11-25T04:32:45.401Z,42.67
2023-11-25T04:35:15.239Z,48.30
2023-11-25T04:37:52.130Z,20.75
2023-11-25T04:40:19.962Z,45.60
2023-11-25T04:42:47.657Z,52.70
2023-11-25T04:45:20.048Z,38.88
2023-11-25T04:47:49.872Z,53.88
2023-11-25T04:50:17.901Z,30.75
2023-11-25T04:52:45.840Z,40.10
2023-11-25T04:55:13.944Z,41.28
2023-11-25T04:57:42.018Z,18.58
2023-11-25T05:00:14.650Z,25.35
2023-11-25T05:02:45.936Z,36.35
2023-11-25T05:05:14.349Z,34.25
2023-11-25T05:07:42.394Z,28.90
2023-11-25T05:10:13.084Z,36.92
2023-11-25T05:12:42.957Z,43.90
2023-11-25T05:15:11.613Z,34.10
2023-11-25T05:17:39.923Z,28.60
2023-11-25T05:20:11.330Z,43.28
2023-11-25T05:22:39.094Z,35.72
2023-11-25T05:25:11.952Z,40.33
2023-11-25T05:27:39.565Z,36.53
2023-11-25T05:30:08.189Z,28.95
2023-11-25T05:32:35.884Z,39.85
2023-11-25T05:35:03.717Z,37.28
2023-11-25T05:37:34.302Z,39.85
2023-11-25T05:40:02.142Z,33.03
2023-11-25T05:42:30.730Z,27.30
2023-11-25T05:44:58.405Z,25.45
2023-11-25T05:47:26.073Z,36.08
2023-11-25T05:49:54.173Z,35.65
2023-11-25T05:52:26.426Z,20.90
2023-11-25T05:55:01.613Z,29.00
2023-11-25T05:57:33.127Z,31.15
2023-11-25T06:00:00.753Z,34.47
2023-11-25T06:02:31.087Z,34.08
2023-11-25T06:05:02.713Z,40.95
2023-11-25T06:07:49.709Z,34.33
2023-11-25T06:10:17.743Z,26.30
2023-11-25T06:12:50.214Z,37.78
2023-11-25T06:15:20.261Z,33.83
2023-11-25T06:17:54.443Z,32.15
2023-11-25T06:20:30.544Z,29.40
2023-11-25T06:22:58.377Z,30.63
2023-11-25T06:25:27.991Z,26.30
2023-11-25T06:28:01.885Z,26.95
2023-11-25T06:30:32.362Z,37.25
2023-11-25T06:33:02.317Z,38.72
2023-11-25T06:35:30.807Z,35.47
2023-11-25T06:37:59.922Z,30.15
2023-11-25T06:40:27.753Z,33.10
2023-11-25T06:42:55.263Z,36.50
2023-11-25T06:45:23.771Z,38.05
2023-11-25T06:47:51.884Z,36.50
2023-11-25T06:50:20.177Z,35.50
2023-11-25T06:52:47.807Z,32.50
2023-11-25T06:55:15.900Z,45.15
2023-11-25T06:57:43.790Z,43.47
2023-11-25T07:00:14.699Z,47.95
2023-11-25T07:02:49.733Z,35.58
2023-11-25T07:05:17.559Z,44.75
2023-11-25T07:07:47.835Z,51.15
2023-11-25T07:10:15.999Z,46.20
2023-11-25T07:12:44.192Z,37.78
2023-11-25T07:15:12.135Z,48.42
2023-11-25T07:17:42.738Z,50.20
2023-11-25T07:20:13.804Z,45.58
2023-11-25T07:22:41.759Z,43.47
2023-11-25T07:25:13.327Z,39.28
2023-11-25T07:27:48.642Z,35.65
2023-11-25T07:30:19.890Z,44.35
2023-11-25T07:32:47.660Z,37.65
2023-11-25T07:35:38.486Z,42.60
2023-11-25T07:38:12.324Z,33.22
2023-11-25T07:41:01.505Z,42.35
2023-11-25T07:43:32.658Z,36.45
2023-11-25T07:47:04.187Z,36.38
2023-11-25T07:50:28.177Z,36.63
2023-11-25T07:52:58.011Z,33.40
2023-11-25T07:55:25.815Z,34.00
2023-11-25T07:57:53.435Z,37.63
2023-11-25T08:00:27.169Z,36.45
2023-11-25T08:03:29.149Z,35.53
2023-11-25T08:06:27.798Z,47.67
2023-11-25T08:08:58.727Z,35.10
2023-11-25T08:11:27.198Z,40.72
2023-11-25T08:14:07.737Z,37.80
2023-11-25T08:19:08.277Z,36.97
2023-11-25T08:21:39.266Z,35.30
2023-11-25T08:24:07.255Z,42.55
2023-11-25T08:26:42.138Z,44.53
2023-11-25T08:30:03.271Z,43.80
2023-11-25T08:35:37.614Z,41.17
2023-11-25T08:38:12.340Z,42.80
2023-11-25T08:40:59.770Z,52.65
2023-11-25T08:46:52.968Z,42.13
2023-11-25T08:50:22.802Z,38.13
2023-11-25T08:53:09.769Z,41.85
2023-11-25T08:56:01.613Z,42.85
2023-11-25T09:01:55.330Z,56.38
2023-11-25T09:04:28.957Z,44.53
2023-11-25T09:07:01.940Z,41.17
2023-11-25T09:09:34.587Z,44.80
2023-11-25T09:12:02.922Z,48.55
2023-11-25T09:14:33.195Z,50.80
2023-11-25T09:17:12.909Z,42.80
2023-11-25T09:19:40.567Z,45.80
2023-11-25T09:22:15.838Z,49.92
2023-11-25T09:24:50.464Z,52.03
2023-11-25T09:27:59.648Z,43.95
2023-11-25T09:30:27.599Z,44.88
2023-11-25T09:32:55.712Z,53.55
2023-11-25T09:35:28.465Z,46.40
2023-11-25T09:38:16.064Z,49.72
2023-11-25T09:40:43.938Z,49.03
2023-11-25T09:43:16.595Z,52.35
2023-11-25T09:46:04.659Z,42.67
2023-11-25T09:48:38.257Z,41.90
2023-11-25T09:51:09.302Z,44.60
2023-11-25T09:53:40.851Z,50.00
2023-11-25T09:56:11.382Z,50.63
2023-11-25T09:58:42.436Z,50.80
2023-11-25T10:01:26.488Z,52.17
2023-11-25T10:04:23.356Z,51.33
2023-11-25T10:07:50.015Z,52.03
2023-11-25T10:13:16.735Z,50.22
2023-11-25T10:16:28.920Z,56.30
2023-11-25T10:19:42.438Z,49.22
2023-11-25T10:22:38.108Z,52.72
2023-11-25T10:25:43.727Z,47.17
2023-11-25T10:28:33.751Z,50.60
2023-11-25T10:31:29.994Z,51.15
2023-11-25T10:34:29.028Z,50.30
2023-11-25T10:38:01.198Z,43.65
2023-11-25T10:45:32.059Z,41.97
2023-11-25T10:59:41.535Z,47.03
2023-11-25T11:02:58.839Z,45.00
2023-11-25T11:09:49.696Z,41.58
2023-11-25T11:25:23.537Z,50.85
2023-11-25T11:32:02.796Z,64.25
2023-11-25T11:35:27.056Z,54.05
2023-11-25T11:38:57.022Z,51.28
2023-11-25T11:49:13.463Z,65.60
2023-11-25T11:52:09.294Z,58.22
2023-11-25T11:54:37.246Z,58.35
2023-11-25T11:57:35.278Z,64.25
2023-11-25T12:01:17.677Z,58.40
2023-11-25T12:04:08.286Z,52.45
2023-11-25T12:07:02.978Z,53.60
2023-11-25T12:09:50.649Z,52.33
2023-11-25T12:12:20.807Z,49.33
2023-11-25T12:15:21.337Z,54.10
2023-11-25T12:17:59.690Z,55.50
2023-11-25T12:20:41.965Z,55.28
2023-11-25T12:23:28.293Z,51.80
2023-11-25T12:26:08.708Z,53.53
2023-11-25T12:28:45.859Z,56.03
2023-11-25T12:31:19.333Z,52.67
2023-11-25T12:33:47.268Z,51.15
2023-11-25T12:36:37.381Z,59.83
2023-11-25T12:39:12.059Z,45.88
2023-11-25T12:41:40.556Z,55.83
2023-11-25T12:44:14.499Z,54.80
2023-11-25T12:46:43.877Z,48.95
2023-11-25T12:49:20.923Z,51.72
2023-11-25T12:52:03.343Z,54.20
2023-11-25T12:54:54.215Z,58.00
2023-11-25T12:57:28.990Z,54.00
2023-11-25T12:59:57.400Z,51.30
2023-11-25T13:02:29.092Z,58.05
2023-11-25T13:04:57.788Z,61.63
2023-11-25T13:07:34.780Z,52.13
2023-11-25T13:10:05.822Z,51.45
2023-11-25T13:12:36.493Z,56.63
2023-11-25T13:15:08.373Z,58.90
2023-11-25T13:17:54.704Z,57.65
2023-11-25T13:20:28.226Z,57.70
2023-11-25T13:22:58.678Z,57.42
2023-11-25T13:25:46.162Z,55.28
2023-11-25T13:28:18.390Z,53.80
2023-11-25T13:30:52.360Z,53.53
2023-11-25T13:33:20.240Z,60.67
2023-11-25T13:35:48.106Z,53.20
2023-11-25T13:38:18.611Z,51.50
2023-11-25T13:40:46.495Z,53.67
2023-11-25T13:43:14.855Z,51.72
2023-11-25T13:45:54.600Z,55.88
2023-11-25T13:48:38.978Z,69.50
2023-11-25T13:51:10.648Z,56.70
2023-11-25T13:53:41.627Z,61.33
2023-11-25T13:56:10.329Z,54.15
2023-11-25T13:58:40.192Z,54.25
2023-11-25T14:01:18.219Z,51.85
2023-11-25T14:03:58.271Z,53.60
2023-11-25T14:06:35.281Z,57.38
2023-11-25T14:09:04.609Z,53.25
2023-11-25T14:11:32.917Z,65.32
2023-11-25T14:14:03.092Z,56.78
2023-11-25T14:16:30.826Z,50.13
2023-11-25T14:19:04.412Z,52.35
2023-11-25T14:21:32.047Z,49.33
2023-11-25T14:24:04.902Z,56.25
2023-11-25T14:26:38.491Z,54.80
2023-11-25T14:29:10.455Z,47.75
2023-11-25T14:31:50.031Z,51.47
2023-11-25T14:34:24.104Z,52.88
2023-11-25T14:36:53.566Z,54.90
2023-11-25T14:39:26.429Z,51.15
2023-11-25T14:42:02.368Z,50.83
2023-11-25T14:44:33.109Z,51.42
2023-11-25T14:47:00.939Z,49.58
2023-11-25T14:49:36.227Z,48.50
2023-11-25T14:52:05.172Z,50.55
2023-11-25T14:54:39.938Z,52.58
2023-11-25T14:57:07.741Z,49.22
2023-11-25T15:00:27.748Z,49.08
2023-11-25T15:03:41.016Z,51.20
2023-11-25T15:06:27.899Z,51.47
2023-11-25T15:09:20.028Z,52.00
2023-11-25T15:11:47.776Z,49.80
2023-11-25T15:14:16.750Z,65.93
2023-11-25T15:16:47.049Z,53.67
2023-11-25T15:19:17.838Z,49.92
2023-11-25T15:22:49.240Z,62.72
2023-11-25T15:28:06.551Z,59.90
2023-11-25T15:28:47.732Z,53.47
2023-11-25T15:31:16.559Z,55.58
2023-11-25T15:33:53.848Z,55.30
2023-11-25T15:36:45.168Z,50.20
2023-11-25T15:39:28.010Z,54.15
2023-11-25T15:41:58.209Z,60.47
2023-11-25T15:44:28.280Z,58.53
2023-11-25T15:50:59.412Z,51.55
2023-11-25T16:06:50.170Z,50.20
2023-11-25T16:09:49.911Z,51.42
2023-11-25T16:12:21.508Z,61.58
2023-11-25T16:14:53.213Z,57.30
2023-11-25T16:17:23.680Z,59.88
2023-11-25T16:19:56.378Z,62.63
2023-11-25T16:22:26.973Z,53.08
2023-11-25T16:24:54.628Z,62.88
2023-11-25T16:27:25.327Z,60.60
2023-11-25T16:29:56.105Z,62.80
2023-11-25T16:32:38.508Z,66.15
2023-11-25T16:35:15.554Z,67.05
2023-11-25T16:37:44.307Z,58.05
2023-11-25T16:40:19.396Z,60.47
2023-11-25T16:42:47.777Z,60.80
2023-11-25T16:45:23.693Z,58.72
2023-11-25T16:48:01.754Z,59.22
2023-11-25T16:50:31.256Z,56.00
2023-11-25T16:53:02.478Z,62.65
2023-11-25T16:55:38.712Z,57.50
2023-11-25T16:58:29.519Z,56.88
2023-11-25T17:01:03.342Z,54.60
2023-11-25T17:03:43.915Z,57.95
2023-11-25T17:06:49.185Z,54.85
2023-11-25T17:09:33.858Z,53.88
2023-11-25T17:12:31.925Z,53.83
2023-11-25T17:15:29.071Z,58.67
2023-11-25T17:18:27.562Z,58.13
2023-11-25T17:20:55.681Z,54.20
2023-11-25T17:23:23.596Z,56.92
2023-11-25T17:26:08.586Z,58.47
2023-11-25T17:29:07.025Z,55.50
2023-11-25T17:31:43.881Z,53.92
2023-11-25T17:34:12.869Z,55.53
2023-11-25T17:36:40.754Z,54.72
2023-11-25T17:39:08.970Z,51.83
2023-11-25T17:41:36.576Z,53.80
2023-11-25T17:44:07.878Z,50.78
2023-11-25T17:46:42.928Z,54.25
2023-11-25T17:49:22.801Z,48.95
2023-11-25T17:51:54.959Z,52.92
2023-11-25T17:54:30.063Z,50.47
2023-11-25T17:57:07.359Z,51.17
2023-11-25T17:59:45.304Z,51.53
2023-11-25T18:02:16.271Z,48.92
2023-11-25T18:04:55.440Z,48.08
2023-11-25T18:08:02.260Z,51.28
2023-11-25T18:10:37.308Z,52.40
2023-11-25T18:13:19.141Z,51.38
2023-11-25T18:19:03.463Z,55.05
2023-11-25T18:21:55.027Z,57.88
2023-11-25T18:24:28.723Z,52.83
2023-11-25T18:27:44.419Z,54.58
2023-11-25T18:30:18.396Z,46.97
2023-11-25T18:32:46.816Z,52.10
2023-11-25T18:35:17.273Z,45.75
2023-11-25T18:37:45.446Z,48.88
2023-11-25T18:40:19.393Z,49.60
2023-11-25T18:42:47.384Z,51.00
2023-11-25T18:45:26.125Z,47.70
2023-11-25T18:47:56.901Z,50.90
2023-11-25T18:50:36.947Z,48.17
2023-11-25T18:53:23.629Z,45.65
2023-11-25T18:55:54.109Z,45.85
2023-11-25T18:58:35.226Z,45.58
2023-11-25T19:01:07.773Z,48.08
2023-11-25T19:03:38.307Z,51.65
2023-11-25T19:06:09.148Z,52.88
2023-11-25T19:08:36.758Z,49.65
2023-11-25T19:11:05.632Z,47.17
2023-11-25T19:13:36.024Z,54.28
2023-11-25T19:16:13.015Z,49.58
2023-11-25T19:18:44.808Z,49.25
2023-11-25T19:21:17.726Z,49.25
2023-11-25T19:23:52.246Z,54.33
2023-11-25T19:26:20.002Z,51.88
2023-11-25T19:28:51.779Z,53.35
2023-11-25T19:31:27.089Z,51.92
2023-11-25T19:34:08.384Z,50.22
2023-11-25T19:36:40.402Z,59.80
2023-11-25T19:39:11.685Z,51.53
2023-11-25T19:41:41.741Z,63.35
2023-11-25T19:44:16.206Z,47.22
2023-11-25T19:47:06.506Z,50.33
2023-11-25T19:53:22.560Z,49.35
2023-11-25T20:03:50.169Z,52.08
2023-11-25T20:07:10.549Z,53.17
2023-11-25T20:09:59.357Z,50.63
2023-11-25T20:12:47.172Z,48.50
2023-11-25T20:15:25.391Z,51.33
2023-11-25T20:22:09.913Z,54.20
2023-11-25T20:24:43.449Z,49.95
2023-11-25T20:30:39.171Z,55.60
2023-11-25T20:33:09.077Z,57.70
2023-11-25T20:35:49.642Z,51.72
2023-11-25T20:38:31.594Z,46.50
2023-11-25T20:41:46.779Z,52.28
2023-11-25T20:44:47.366Z,50.17
2023-11-25T20:47:42.702Z,46.55
2023-11-25T20:50:15.819Z,48.42
2023-11-25T20:58:02.266Z,56.70
2023-11-25T21:00:32.478Z,56.95
2023-11-25T21:03:00.503Z,50.78
2023-11-25T21:05:28.283Z,55.80
2023-11-25T21:07:55.906Z,57.30
2023-11-25T21:10:23.523Z,59.05
2023-11-25T21:12:51.023Z,62.85
2023-11-25T21:15:21.277Z,61.45
2023-11-25T21:17:49.087Z,60.35
2023-11-25T21:20:16.968Z,58.67
2023-11-25T21:22:45.080Z,58.85
2023-11-25T21:25:12.806Z,62.05
2023-11-25T21:27:45.072Z,62.20
2023-11-25T21:30:20.292Z,66.03
2023-11-25T21:32:47.864Z,66.05
2023-11-25T21:35:15.668Z,66.20
2023-11-25T21:37:44.333Z,63.45
2023-11-25T21:40:20.570Z,60.50
2023-11-25T21:42:51.559Z,59.65
2023-11-25T21:45:19.694Z,62.03
2023-11-25T21:47:47.622Z,57.28
2023-11-25T21:50:15.475Z,59.03
2023-11-25T21:52:43.278Z,57.67
2023-11-25T21:55:12.271Z,68.00
2023-11-25T21:57:40.054Z,61.38
2023-11-25T22:00:12.115Z,63.40
2023-11-25T22:02:42.702Z,52.50
2023-11-25T22:05:12.331Z,59.00
2023-11-25T22:07:40.363Z,65.30
2023-11-25T22:10:21.900Z,61.58
2023-11-25T22:12:57.241Z,65.40
2023-11-25T22:15:25.437Z,59.50
2023-11-25T22:17:53.241Z,58.80
2023-11-25T22:20:20.979Z,65.78
2023-11-25T22:22:48.775Z,61.22
2023-11-25T22:25:27.249Z,61.70
2023-11-25T22:27:56.123Z,56.90
2023-11-25T22:30:23.810Z,57.85
2023-11-25T22:32:51.430Z,59.30
2023-11-25T22:35:20.943Z,67.53
2023-11-25T22:37:52.607Z,59.50
2023-11-25T22:40:20.569Z,59.85
2023-11-25T22:42:50.727Z,58.03
2023-11-25T22:45:21.951Z,54.78
2023-11-25T22:47:49.630Z,66.03
2023-11-25T22:50:17.472Z,60.05
2023-11-25T22:52:49.108Z,51.90
2023-11-25T22:55:16.849Z,60.30
2023-11-25T22:57:49.644Z,54.72
2023-11-25T23:00:42.016Z,57.78
2023-11-25T23:03:12.863Z,55.35
2023-11-25T23:05:40.485Z,54.38
2023-11-25T23:08:08.150Z,56.60
2023-11-25T23:10:35.782Z,61.10
2023-11-25T23:13:03.390Z,61.60
2023-11-25T23:15:31.146Z,65.50
2023-11-25T23:18:01.178Z,65.40
2023-11-25T23:20:29.085Z,65.65
2023-11-25T23:22:57.062Z,63.47
2023-11-25T23:25:24.762Z,65.18
2023-11-25T23:27:53.253Z,65.38
2023-11-25T23:30:20.814Z,68.47
2023-11-25T23:32:48.536Z,73.18
2023-11-25T23:35:16.316Z,61.78
2023-11-25T23:37:44.550Z,66.32
2023-11-25T23:40:13.040Z,59.53
2023-11-25T23:42:40.732Z,63.90
2023-11-25T23:45:08.617Z,57.30
2023-11-25T23:47:37.412Z,54.67
2023-11-25T23:50:05.227Z,54.25
2023-11-25T23:52:32.858Z,57.95
2023-11-25T23:55:03.410Z,59.03
2023-11-25T23:57:31.009Z,50.00
2023-11-25T23:59:58.932Z,48.60
